Time;durP1;ratioP1;P1;durP2;ratioP2;P2;SDS_P1;SDS_P2;PMS_P1;PMS_P2;Temp;Humidity;BMP_temperature;BMP_pressure;BME280_temperature;BME280_humidity;BME280_pressure;Samples;Min_cycle;Max_cycle;Signal;HPM_P1;HPM_P2
2023/09/01 00:01:03;;;;;;;19.92;11.52;;;18.40;93.70;;;;;;4955614;28;20037;-84
2023/09/01 00:03:29;;;;;;;16.27;13.07;;;18.30;93.80;;;;;;4937477;29;20023;-85
2023/09/01 00:05:55;;;;;;;23.60;12.60;;;18.30;93.80;;;;;;4938155;28;20449;-84
2023/09/01 00:08:24;;;;;;;18.45;12.98;;;18.30;93.90;;;;;;4956365;28;20091;-85
2023/09/01 00:10:49;;;;;;;24.95;13.68;;;18.30;94.00;;;;;;4939222;29;20480;-84
2023/09/01 00:13:15;;;;;;;22.30;12.65;;;18.30;94.10;;;;;;4953200;28;20047;-84
2023/09/01 00:15:41;;;;;;;22.90;14.10;;;18.30;94.10;;;;;;4950988;28;20082;-84
2023/09/01 00:18:07;;;;;;;26.13;13.52;;;18.20;94.20;;;;;;4954618;28;20378;-83
2023/09/01 00:20:36;;;;;;;21.73;13.15;;;18.20;94.20;;;;;;4954221;28;20031;-84
2023/09/01 00:23:03;;;;;;;27.77;15.18;;;18.20;94.30;;;;;;4953864;28;20023;-83
2023/09/01 00:25:29;;;;;;;;;;;18.20;94.40;;;;;;4954318;28;20035;-83
2023/09/01 00:27:55;;;;;;;16.70;12.40;;;18.20;94.00;;;;;;4937161;29;19910;-84
2023/09/01 00:30:21;;;;;;;20.80;12.93;;;18.10;94.40;;;;;;4954899;28;20030;-83
2023/09/01 00:32:47;;;;;;;16.02;12.75;;;18.10;94.60;;;;;;4961664;28;20038;-83
2023/09/01 00:35:13;;;;;;;14.90;12.05;;;18.10;94.70;;;;;;4960860;28;20028;-83
2023/09/01 00:37:39;;;;;;;19.25;12.70;;;18.10;94.80;;;;;;4976332;28;20031;-83
2023/09/01 00:40:05;;;;;;;17.48;13.02;;;18.10;94.70;;;;;;4955298;28;20050;-83
2023/09/01 00:42:31;;;;;;;25.38;13.95;;;18.00;94.70;;;;;;4936827;29;20034;-84
2023/09/01 00:44:57;;;;;;;18.92;12.63;;;18.00;94.90;;;;;;4954586;28;20027;-84
2023/09/01 00:47:22;;;;;;;26.50;14.15;;;18.00;95.00;;;;;;4958310;28;20516;-85
2023/09/01 00:49:49;;;;;;;21.23;12.73;;;18.00;95.00;;;;;;4965535;28;20082;-85
2023/09/01 00:52:15;;;;;;;18.30;12.63;;;18.00;95.00;;;;;;4969777;28;20038;-84
2023/09/01 00:54:41;;;;;;;20.67;14.35;;;17.90;94.90;;;;;;4966460;28;20389;-84
2023/09/01 00:57:07;;;;;;;23.63;14.35;;;18.00;95.10;;;;;;4965095;28;20054;-83
2023/09/01 00:59:33;;;;;;;19.75;13.43;;;18.00;95.40;;;;;;4964726;28;20026;-84
2023/09/01 01:02:00;;;;;;;27.25;14.13;;;17.90;95.20;;;;;;4955643;28;20357;-84
2023/09/01 01:04:26;;;;;;;19.70;13.03;;;18.00;95.20;;;;;;4957151;28;20023;-85
2023/09/01 01:07:12;;;;;;;21.08;14.32;;;17.90;95.30;;;;;;4958718;28;20122;-84
2023/09/01 01:10:04;;;;;;;18.63;13.45;;;17.90;95.30;;;;;;4959233;28;20079;-84
2023/09/01 01:12:48;;;;;;;20.95;14.20;;;17.80;95.40;;;;;;4951716;28;20459;-84
2023/09/01 01:15:15;;;;;;;20.35;13.70;;;17.80;95.30;;;;;;4953961;28;20054;-85
2023/09/01 01:17:44;;;;;;;17.05;13.15;;;17.80;95.50;;;;;;4953916;28;20508;-85
2023/09/01 01:20:16;;;;;;;23.88;14.82;;;17.80;95.60;;;;;;4954198;28;20020;-85
2023/09/01 01:22:57;;;;;;;22.52;14.23;;;17.80;95.60;;;;;;4954309;28;20710;-85
2023/09/01 01:25:23;;;;;;;26.23;14.65;;;17.70;95.70;;;;;;4954060;28;20031;-85
2023/09/01 01:27:49;;;;;;;20.55;13.57;;;17.70;95.70;;;;;;4936428;28;20414;-84
2023/09/01 01:30:15;;;;;;;26.25;14.85;;;17.70;95.80;;;;;;4937628;29;20043;-85
2023/09/01 01:32:43;;;;;;;19.90;14.27;;;17.70;95.80;;;;;;4954783;28;20034;-85
2023/09/01 01:35:29;;;;;;;20.13;13.60;;;17.70;95.90;;;;;;4950550;28;20479;-84
2023/09/01 01:38:18;;;;;;;21.08;14.02;;;17.70;96.00;;;;;;4956284;28;20130;-84
2023/09/01 01:40:49;;;;;;;19.33;13.98;;;17.60;96.00;;;;;;4956995;28;20389;-85
2023/09/01 01:43:17;;;;;;;17.98;13.95;;;17.60;96.10;;;;;;4951133;28;20055;-85
2023/09/01 01:45:44;;;;;;;19.02;14.65;;;17.60;96.20;;;;;;4958803;28;20102;-85
2023/09/01 01:48:10;;;;;;;21.08;14.35;;;17.50;96.30;;;;;;4959608;28;20106;-84
2023/09/01 01:50:36;;;;;;;21.77;14.38;;;17.60;96.40;;;;;;4961642;28;20027;-84
2023/09/01 01:53:05;;;;;;;21.13;15.38;;;17.50;96.50;;;;;;4961347;28;20032;-85
2023/09/01 01:55:32;;;;;;;25.65;15.82;;;17.50;96.60;;;;;;4958914;28;20048;-85
2023/09/01 01:57:58;;;;;;;24.80;15.02;;;17.40;96.60;;;;;;4957810;28;20358;-86
2023/09/01 02:00:26;;;;;;;27.48;15.75;;;17.40;96.70;;;;;;4948383;29;20034;-84
2023/09/01 02:02:52;;;;;;;17.55;15.07;;;17.40;96.60;;;;;;4947926;28;20404;-85
2023/09/01 02:05:19;;;;;;;23.35;15.32;;;17.40;96.80;;;;;;4957916;28;20034;-85
2023/09/01 02:07:44;;;;;;;32.30;16.88;;;17.40;96.90;;;;;;4957798;28;20015;-85
2023/09/01 02:10:11;;;;;;;27.90;16.70;;;17.40;97.00;;;;;;4956647;28;20384;-85
2023/09/01 02:12:37;;;;;;;28.27;17.20;;;17.30;96.90;;;;;;4954401;28;20027;-84
2023/09/01 02:15:08;;;;;;;19.80;15.23;;;17.30;96.90;;;;;;4956812;28;20023;-84
2023/09/01 02:17:36;;;;;;;21.17;15.57;;;17.30;97.00;;;;;;4957021;28;20551;-85
2023/09/01 02:20:16;;;;;;;29.25;16.85;;;17.30;97.10;;;;;;4939554;29;20027;-84
2023/09/01 02:22:43;;;;;;;24.27;16.38;;;17.30;97.10;;;;;;4956963;28;20043;-84
2023/09/01 02:25:09;;;;;;;23.50;15.80;;;17.30;97.20;;;;;;4952556;28;20024;-84
2023/09/01 02:27:38;;;;;;;26.92;17.17;;;17.30;97.30;;;;;;4966405;28;20015;-84
2023/09/01 02:30:05;;;;;;;28.00;16.80;;;17.30;97.40;;;;;;4966021;28;20028;-84
2023/09/01 02:32:31;;;;;;;29.95;17.67;;;17.30;97.40;;;;;;4939304;29;20433;-85
2023/09/01 02:34:57;;;;;;;25.08;17.83;;;17.30;97.40;;;;;;4956371;28;21464;-85
2023/09/01 02:37:24;;;;;;;26.67;16.33;;;17.30;97.50;;;;;;4956456;28;20082;-85
2023/09/01 02:39:49;;;;;;;20.15;15.13;;;17.30;97.50;;;;;;4956382;28;20114;-84
2023/09/01 02:42:15;;;;;;;28.33;17.17;;;17.30;97.50;;;;;;4949400;28;20038;-83
2023/09/01 02:44:41;;;;;;;26.55;17.52;;;17.30;97.40;;;;;;4956535;28;20745;-84
2023/09/01 02:47:07;;;;;;;25.17;17.45;;;17.30;97.40;;;;;;4950838;28;20102;-86
2023/09/01 02:49:32;;;;;;;29.90;16.63;;;17.20;97.50;;;;;;4962257;28;20019;-85
2023/09/01 02:51:58;;;;;;;31.33;17.48;;;17.20;97.50;;;;;;4960287;28;20098;-86
2023/09/01 02:54:24;;;;;;;24.33;17.40;;;17.30;97.60;;;;;;4952659;28;20023;-85
2023/09/01 02:56:50;;;;;;;25.17;17.15;;;17.30;97.50;;;;;;4956202;28;20054;-86
2023/09/01 02:59:16;;;;;;;25.42;17.35;;;17.20;97.50;;;;;;4939958;29;20458;-89
2023/09/01 03:01:41;;;;;;;36.90;19.98;;;17.30;97.60;;;;;;4952293;28;20055;-86
2023/09/01 03:04:07;;;;;;;31.13;17.70;;;17.30;97.60;;;;;;4939304;28;20016;-83
2023/09/01 03:06:36;;;;;;;26.27;17.50;;;17.30;97.50;;;;;;4960432;28;20099;-85
2023/09/01 03:09:05;;;;;;;33.60;17.80;;;17.30;97.50;;;;;;4957177;28;20106;-85
2023/09/01 03:11:31;;;;;;;35.47;18.10;;;17.40;97.50;;;;;;4943983;29;20062;-85
2023/09/01 03:13:57;;;;;;;44.13;19.00;;;17.40;97.50;;;;;;4966818;29;20034;-87
2023/09/01 03:16:23;;;;;;;23.98;16.70;;;17.40;97.40;;;;;;4956711;28;20519;-87
2023/09/01 03:18:49;;;;;;;29.20;17.95;;;17.50;97.40;;;;;;4951414;29;20065;-88
2023/09/01 03:21:15;;;;;;;22.67;16.83;;;17.50;97.40;;;;;;4955922;28;20051;-87
2023/09/01 03:23:41;;;;;;;23.33;16.40;;;17.60;97.20;;;;;;4956715;28;20091;-85
2023/09/01 03:26:07;;;;;;;31.15;16.27;;;17.60;97.10;;;;;;4960144;28;20393;-85
2023/09/01 03:28:33;;;;;;;34.92;18.90;;;17.70;97.10;;;;;;4942267;29;20034;-84
2023/09/01 03:31:04;;;;;;;24.17;16.67;;;17.70;97.00;;;;;;4961951;28;20441;-83
2023/09/01 03:33:31;;;;;;;25.02;15.88;;;17.80;97.00;;;;;;4939720;28;20106;-85
2023/09/01 03:36:02;;;;;;;32.10;17.35;;;17.90;96.70;;;;;;4955640;28;20039;-85
2023/09/01 03:38:28;;;;;;;25.70;15.82;;;17.90;96.60;;;;;;4950730;28;20035;-86
2023/09/01 03:40:53;;;;;;;35.95;17.95;;;18.00;96.40;;;;;;4954463;28;20074;-82
2023/09/01 03:43:19;;;;;;;36.70;16.88;;;18.10;96.30;;;;;;4949219;28;20035;-84
2023/09/01 03:45:46;;;;;;;22.17;15.48;;;18.10;96.00;;;;;;4955042;28;20106;-83
2023/09/01 03:48:12;;;;;;;18.50;14.80;;;18.20;95.90;;;;;;4954895;28;20055;-85
2023/09/01 03:50:38;;;;;;;32.72;16.65;;;18.20;95.60;;;;;;4937809;28;20083;-83
2023/09/01 03:53:03;;;;;;;30.00;17.08;;;18.30;95.50;;;;;;4955170;28;20023;-84
2023/09/01 03:55:29;;;;;;;23.10;14.98;;;18.30;95.20;;;;;;4955087;28;20027;-84
2023/09/01 03:57:55;;;;;;;34.42;17.20;;;18.40;95.00;;;;;;4937391;29;20039;-84
2023/09/01 04:00:22;;;;;;;24.98;15.90;;;18.50;94.90;;;;;;4955002;28;20023;-83
2023/09/01 04:02:47;;;;;;;34.67;17.40;;;18.50;94.90;;;;;;4955067;28;20015;-84
2023/09/01 04:05:13;;;;;;;26.73;14.30;;;18.60;94.70;;;;;;4954597;28;20020;-83
2023/09/01 04:07:39;;;;;;;36.35;17.17;;;18.70;94.40;;;;;;4955380;28;20030;-83
2023/09/01 04:10:06;;;;;;;46.10;18.90;;;18.80;94.30;;;;;;4964461;28;20567;-83
2023/09/01 04:12:31;;;;;;;29.37;14.87;;;18.90;94.00;;;;;;4955445;28;20035;-85
2023/09/01 04:14:57;;;;;;;29.10;17.38;;;19.10;93.90;;;;;;4957405;28;20026;-82
2023/09/01 04:17:23;;;;;;;27.23;15.98;;;19.20;93.60;;;;;;4940857;29;20374;-84
2023/09/01 04:19:49;;;;;;;52.45;18.13;;;19.30;93.50;;;;;;4976353;28;20027;-83
2023/09/01 04:22:15;;;;;;;46.40;17.15;;;19.50;93.10;;;;;;4958552;28;20027;-84
2023/09/01 04:24:41;;;;;;;66.63;19.70;;;19.60;92.70;;;;;;4952937;28;20024;-86
2023/09/01 04:27:07;;;;;;;28.10;15.30;;;19.80;92.50;;;;;;4937237;29;20023;-85
2023/09/01 04:29:33;;;;;;;34.08;16.63;;;20.00;92.10;;;;;;4955220;28;20027;-82
2023/09/01 04:31:59;;;;;;;40.90;17.45;;;20.10;91.70;;;;;;4955622;28;20019;-83
2023/09/01 04:34:25;;;;;;;54.00;19.33;;;20.30;91.40;;;;;;4961053;28;20774;-84
2023/09/01 04:36:51;;;;;;;20.50;14.23;;;20.70;90.90;;;;;;4946341;29;20066;-84
2023/09/01 04:39:17;;;;;;;37.92;15.65;;;21.20;90.00;;;;;;4955384;28;20038;-85
2023/09/01 04:41:43;;;;;;;28.98;15.50;;;21.60;88.40;;;;;;4946435;28;20038;-84
2023/09/01 04:44:09;;;;;;;49.70;18.70;;;22.00;86.70;;;;;;4963638;28;20062;-84
2023/09/01 04:46:35;;;;;;;21.85;14.52;;;22.50;85.20;;;;;;4963347;28;20030;-86
2023/09/01 04:49:00;;;;;;;37.55;16.67;;;22.90;82.80;;;;;;4964108;28;20536;-84
2023/09/01 04:51:26;;;;;;;69.28;19.23;;;23.30;81.20;;;;;;4947379;29;20091;-83
2023/09/01 04:53:52;;;;;;;36.58;16.70;;;23.70;79.60;;;;;;4954840;28;20023;-86
2023/09/01 04:56:18;;;;;;;34.92;16.42;;;24.10;78.30;;;;;;4954724;28;20082;-84
2023/09/01 04:58:43;;;;;;;38.08;17.95;;;24.50;76.90;;;;;;4937392;29;20086;-83
2023/09/01 05:01:09;;;;;;;38.35;16.70;;;24.60;75.20;;;;;;4950716;28;20043;-82
2023/09/01 05:03:35;;;;;;;39.60;15.75;;;24.80;75.00;;;;;;4945329;28;20028;-84
2023/09/01 05:06:01;;;;;;;21.52;14.18;;;25.10;74.20;;;;;;4948751;28;20034;-84
2023/09/01 05:08:27;;;;;;;30.50;15.13;;;;;;;;;;4954609;28;20035;-82
2023/09/01 05:10:53;;;;;;;44.08;17.90;;;25.60;71.30;;;;;;4967703;28;20023;-84
2023/09/01 05:13:18;;;;;;;34.08;16.20;;;25.80;70.70;;;;;;4944974;29;20046;-85
2023/09/01 05:15:47;;;;;;;53.50;19.17;;;26.10;70.00;;;;;;4954302;28;20062;-84
2023/09/01 05:18:13;;;;;;;28.13;14.18;;;26.50;68.30;;;;;;4956499;28;20020;-85
2023/09/01 05:20:39;;;;;;;32.35;15.73;;;27.00;67.30;;;;;;4948887;28;20450;-86
2023/09/01 05:23:05;;;;;;;26.77;14.07;;;27.30;66.00;;;;;;4934472;28;20027;-86
2023/09/01 05:25:31;;;;;;;22.88;14.25;;;27.30;64.70;;;;;;4942871;29;20042;-85
2023/09/01 05:27:57;;;;;;;28.25;15.13;;;27.30;65.40;;;;;;4960391;28;20436;-85
2023/09/01 05:30:23;;;;;;;29.95;14.30;;;27.40;64.40;;;;;;4958668;28;20019;-85
2023/09/01 05:32:49;;;;;;;36.58;15.23;;;27.70;64.40;;;;;;4963949;28;20024;-85
2023/09/01 05:35:15;;;;;;;27.63;14.17;;;27.70;62.90;;;;;;4959646;28;20040;-87
2023/09/01 05:37:41;;;;;;;26.40;14.88;;;26.90;63.50;;;;;;4946589;29;20031;-85
2023/09/01 05:40:07;;;;;;;34.08;15.32;;;26.00;65.50;;;;;;4937710;28;20027;-84
2023/09/01 05:42:33;;;;;;;32.90;15.33;;;25.20;67.30;;;;;;4944550;28;20181;-86
2023/09/01 05:44:59;;;;;;;26.73;15.38;;;24.60;69.50;;;;;;4940181;28;20095;-88
2023/09/01 05:47:25;;;;;;;34.67;17.00;;;24.20;70.70;;;;;;4935141;28;20254;-85
2023/09/01 05:49:51;;;;;;;39.42;19.70;;;24.00;71.90;;;;;;4939076;28;20023;-86
2023/09/01 05:52:16;;;;;;;33.28;16.60;;;23.80;72.20;;;;;;4942362;28;20500;-85
2023/09/01 05:54:42;;;;;;;20.98;14.18;;;24.10;73.10;;;;;;4947924;28;20042;-86
2023/09/01 05:57:08;;;;;;;27.00;14.57;;;25.30;70.90;;;;;;4947940;28;20036;-86
2023/09/01 05:59:34;;;;;;;24.20;14.25;;;26.90;67.20;;;;;;4943732;28;20034;-86
2023/09/01 06:02:00;;;;;;;31.23;14.73;;;28.30;63.60;;;;;;4942252;28;20020;-86
2023/09/01 06:04:26;;;;;;;33.20;15.15;;;29.60;60.90;;;;;;4956073;28;20501;-83
2023/09/01 06:06:57;;;;;;;18.83;12.60;;;;;;;;;;4955759;28;20031;-85
2023/09/01 06:09:23;;;;;;;56.00;16.83;;;30.70;58.40;;;;;;4946761;29;20007;-86
2023/09/01 06:11:49;;;;;;;38.87;15.03;;;32.30;54.80;;;;;;4967574;28;20024;-84
2023/09/01 06:14:15;;;;;;;27.40;13.23;;;33.00;53.70;;;;;;4956433;28;20027;-87
2023/09/01 06:16:41;;;;;;;21.27;13.37;;;33.70;51.70;;;;;;4934909;29;20038;-84
2023/09/01 06:19:07;;;;;;;23.05;11.43;;;34.30;50.50;;;;;;4947632;28;20370;-84
2023/09/01 06:21:33;;;;;;;23.60;13.03;;;34.50;49.30;;;;;;4940653;28;20027;-84
2023/09/01 06:24:03;;;;;;;21.27;11.97;;;34.80;48.60;;;;;;4960161;28;20035;-86
2023/09/01 06:26:29;;;;;;;20.65;12.25;;;35.00;48.40;;;;;;4964598;28;20075;-84
2023/09/01 06:28:55;;;;;;;23.50;12.87;;;35.30;47.50;;;;;;4943474;29;20469;-86
2023/09/01 06:31:21;;;;;;;20.33;11.83;;;;;;;;;;4959408;28;20027;-86
2023/09/01 06:33:47;;;;;;;23.45;11.55;;;35.60;46.90;;;;;;4954737;28;20023;-85
2023/09/01 06:36:14;;;;;;;22.92;12.63;;;36.60;45.50;;;;;;4957098;28;20040;-85
2023/09/01 06:38:40;;;;;;;24.75;13.02;;;37.00;45.90;;;;;;4957644;28;20022;-85
2023/09/01 06:41:07;;;;;;;23.80;11.55;;;37.00;44.50;;;;;;4957894;28;20023;-85
2023/09/01 06:43:32;;;;;;;23.08;11.38;;;37.30;44.10;;;;;;4931211;28;20035;-84
2023/09/01 06:45:59;;;;;;;25.52;10.48;;;37.70;43.90;;;;;;4940015;29;20031;-86
2023/09/01 06:48:26;;;;;;;40.38;13.45;;;38.10;43.10;;;;;;4956988;28;20039;-85
2023/09/01 06:50:52;;;;;;;23.50;11.13;;;38.30;42.30;;;;;;4952725;28;20721;-86
2023/09/01 06:53:17;;;;;;;24.55;11.15;;;38.00;42.60;;;;;;4957510;28;20035;-86
2023/09/01 06:55:47;;;;;;;30.33;15.85;;;38.00;42.50;;;;;;4942306;28;20130;-86
2023/09/01 06:58:13;;;;;;;24.63;10.77;;;38.00;42.10;;;;;;4958064;28;20059;-84
2023/09/01 07:00:39;;;;;;;27.95;11.40;;;38.00;42.20;;;;;;4959831;28;20099;-87
2023/09/01 07:03:05;;;;;;;27.73;11.18;;;38.10;42.40;;;;;;4939579;29;20440;-85
2023/09/01 07:05:31;;;;;;;24.17;10.05;;;38.40;42.00;;;;;;4939046;29;20031;-85
2023/09/01 07:07:57;;;;;;;82.97;21.08;;;38.70;41.80;;;;;;4890488;29;20047;-83
2023/09/01 07:10:23;;;;;;;26.80;11.20;;;38.80;41.40;;;;;;4893467;29;20037;-85
2023/09/01 07:12:49;;;;;;;19.60;10.10;;;38.80;40.90;;;;;;4882770;29;20460;-89
2023/09/01 07:15:14;;;;;;;18.63;11.10;;;39.10;40.90;;;;;;4883073;29;20027;-85
2023/09/01 07:17:40;;;;;;;19.00;9.88;;;39.40;40.90;;;;;;4898224;29;20097;-90
2023/09/01 07:20:07;;;;;;;22.55;10.20;;;39.80;40.50;;;;;;4878777;29;20036;-84
2023/09/01 07:22:32;;;;;;;21.25;10.40;;;40.10;39.50;;;;;;4890899;29;20043;-83
2023/09/01 07:24:59;;;;;;;28.90;10.15;;;40.30;39.10;;;;;;4884932;29;20029;-87
2023/09/01 07:27:24;;;;;;;20.55;9.70;;;40.30;38.90;;;;;;4881022;29;20048;-87
2023/09/01 07:29:50;;;;;;;17.38;8.98;;;40.20;38.90;;;;;;4893358;29;20509;-86
2023/09/01 07:32:17;;;;;;;30.58;11.82;;;40.00;39.00;;;;;;4891220;29;20850;-88
2023/09/01 07:34:43;;;;;;;36.70;12.10;;;40.20;38.90;;;;;;4890656;29;20032;-83
2023/09/01 07:37:09;;;;;;;43.72;13.80;;;40.10;39.10;;;;;;4876029;29;20041;-84
2023/09/01 07:39:35;;;;;;;20.15;9.70;;;40.50;39.10;;;;;;4887676;29;20089;-83
2023/09/01 07:42:01;;;;;;;;;;;;;;;;;;4887234;29;20033;-84
2023/09/01 07:44:27;;;;;;;12.52;7.68;;;40.90;38.90;;;;;;4888974;29;19916;-84
2023/09/01 07:46:53;;;;;;;23.65;9.23;;;41.40;37.60;;;;;;4953141;28;20127;-83
2023/09/01 07:49:19;;;;;;;;;;;41.20;37.40;;;;;;4957668;28;20118;-84
2023/09/01 07:51:44;;;;;;;41.67;11.07;;;41.20;38.80;;;;;;4956318;28;19970;-85
2023/09/01 07:54:10;;;;;;;;;;;40.50;38.20;;;;;;4938855;28;20406;-83
2023/09/01 07:56:36;;;;;;;31.98;10.23;;;40.50;39.50;;;;;;4953822;28;19988;-83
2023/09/01 07:59:05;;;;;;;16.65;7.55;;;41.00;38.20;;;;;;4966234;28;20051;-86
2023/09/01 08:01:30;;;;;;;22.98;7.88;;;40.80;37.40;;;;;;4952584;29;20035;-88
2023/09/01 08:03:59;;;;;;;;;;;40.50;38.00;;;;;;4968469;28;20031;-86
2023/09/01 08:06:29;;;;;;;24.42;8.98;;;40.70;39.00;;;;;;4956270;28;19906;-90
2023/09/01 08:08:55;;;;;;;46.58;13.32;;;41.40;38.30;;;;;;4957293;28;20019;-86
2023/09/01 08:11:21;;;;;;;26.35;9.20;;;41.90;36.30;;;;;;4951966;28;20042;-85
2023/09/01 08:13:47;;;;;;;;;;;42.30;36.30;;;;;;4949426;28;20197;-83
2023/09/01 08:16:15;;;;;;;21.38;6.63;;;;;;;;;;4954073;28;19918;-88
2023/09/01 08:18:41;;;;;;;22.88;8.15;;;42.60;37.20;;;;;;4952839;28;20023;-88
2023/09/01 08:21:07;;;;;;;12.27;5.70;;;43.00;35.20;;;;;;4956237;28;20023;-87
2023/09/01 08:23:33;;;;;;;56.20;12.95;;;43.10;34.90;;;;;;4954719;28;20015;-85
2023/09/01 08:26:04;;;;;;;55.92;13.07;;;43.20;35.00;;;;;;4939820;29;20075;-91
2023/09/01 08:28:31;;;;;;;21.67;7.25;;;43.40;34.60;;;;;;4947156;28;20030;-87
2023/09/01 08:31:03;;;;;;;16.48;6.57;;;43.50;34.00;;;;;;4942163;28;20023;-89
2023/09/01 08:33:29;;;;;;;27.38;7.55;;;43.10;33.80;;;;;;4938892;28;20031;-88
2023/09/01 08:35:55;;;;;;;56.33;13.63;;;42.30;34.10;;;;;;4957267;28;20102;-85
2023/09/01 08:38:21;;;;;;;68.10;13.90;;;42.10;34.50;;;;;;4938171;28;20090;-86
2023/09/01 08:40:50;;;;;;;32.13;9.30;;;41.70;34.20;;;;;;4938977;29;20042;-86
2023/09/01 08:43:17;;;;;;;21.75;7.30;;;41.20;34.80;;;;;;4941634;29;20027;-86
2023/09/01 08:45:44;;;;;;;23.52;6.72;;;41.50;34.90;;;;;;4956712;28;20027;-87
2023/09/01 08:48:10;;;;;;;23.20;6.03;;;41.80;34.40;;;;;;4955914;28;20043;-85
2023/09/01 08:50:36;;;;;;;21.42;7.32;;;41.30;33.90;;;;;;4937935;28;20027;-86
2023/09/01 08:53:03;;;;;;;16.30;5.97;;;;;;;;;;4937870;29;20034;-83
2023/09/01 08:55:29;;;;;;;19.17;6.65;;;38.40;35.60;;;;;;4956741;28;20022;-92
2023/09/01 08:57:55;;;;;;;;;;;37.50;37.70;;;;;;4942140;29;20094;-91
2023/09/01 09:00:21;;;;;;;19.25;6.22;;;38.30;38.10;;;;;;4967575;28;19906;-90
2023/09/01 09:02:47;;;;;;;21.70;6.75;;;39.40;36.80;;;;;;4960046;29;20027;-86
2023/09/01 09:05:14;;;;;;;;;;;40.40;35.90;;;;;;4950825;28;20035;-88
2023/09/01 09:07:40;;;;;;;13.23;5.75;;;41.30;35.70;;;;;;4961969;28;19906;-91
2023/09/01 09:10:06;;;;;;;11.73;6.47;;;40.00;35.30;;;;;;4944734;28;20035;-86
2023/09/01 09:12:36;;;;;;;33.15;9.48;;;38.70;36.60;;;;;;4950858;28;20031;-90
2023/09/01 09:15:03;;;;;;;15.38;6.95;;;38.90;37.10;;;;;;4941638;29;20027;-87
2023/09/01 09:17:44;;;;;;;41.42;9.90;;;39.90;36.30;;;;;;4961582;28;20061;-92
2023/09/01 09:20:14;;;;;;;49.58;10.20;;;41.00;35.50;;;;;;4958205;28;20473;-91
2023/09/01 09:22:53;;;;;;;93.18;18.08;;;42.50;34.90;;;;;;4959812;28;20110;-93
2023/09/01 09:25:29;;;;;;;27.55;8.73;;;43.00;34.60;;;;;;4956987;28;20485;-93
2023/09/01 09:27:59;;;;;;;118.47;22.63;;;43.30;33.60;;;;;;4935632;29;20031;-91
2023/09/01 09:30:25;;;;;;;57.42;11.00;;;43.40;33.70;;;;;;4964173;28;20022;-94
2023/09/01 09:33:05;;;;;;;86.07;18.00;;;43.40;33.40;;;;;;4953370;28;20042;-94
2023/09/01 09:35:47;;;;;;;51.75;11.23;;;43.40;33.50;;;;;;4943245;28;20068;-84
2023/09/01 09:38:13;;;;;;;40.95;9.32;;;43.50;33.70;;;;;;4946626;28;20023;-84
2023/09/01 09:40:39;;;;;;;54.17;9.15;;;43.70;32.80;;;;;;4952531;28;20492;-84
2023/09/01 09:43:09;;;;;;;15.35;5.85;;;43.90;32.90;;;;;;4934710;29;20025;-83
2023/09/01 09:45:37;;;;;;;17.88;5.55;;;44.20;32.20;;;;;;4947194;28;20027;-85
2023/09/01 09:48:05;;;;;;;15.07;5.18;;;44.00;31.90;;;;;;4949212;28;20035;-85
2023/09/01 09:50:32;;;;;;;40.33;8.40;;;43.90;31.90;;;;;;4960072;28;20030;-86
2023/09/01 09:53:03;;;;;;;34.63;10.05;;;43.70;32.00;;;;;;4959140;28;20055;-84
2023/09/01 09:55:31;;;;;;;56.08;9.95;;;43.60;32.30;;;;;;4952045;28;20035;-84
2023/09/01 09:58:04;;;;;;;44.97;11.60;;;43.70;32.20;;;;;;4951881;28;20027;-83
2023/09/01 10:00:58;;;;;;;8.63;4.68;;;43.00;32.30;;;;;;4950318;28;20123;-84
2023/09/01 10:03:29;;;;;;;8.85;4.57;;;42.40;32.60;;;;;;4943363;28;20028;-85
2023/09/01 10:05:55;;;;;;;13.65;4.90;;;41.20;33.10;;;;;;4946528;28;20042;-84
2023/09/01 10:08:21;;;;;;;;;;;39.60;34.50;;;;;;4943679;28;20031;-85
2023/09/01 10:10:49;;;;;;;22.27;6.10;;;38.90;35.10;;;;;;4943406;28;19915;-84
2023/09/01 10:13:15;;;;;;;10.32;5.10;;;38.10;36.30;;;;;;4943524;28;20027;-85
2023/09/01 10:15:42;;;;;;;14.38;5.43;;;38.70;35.70;;;;;;4950136;29;20042;-83
2023/09/01 10:18:09;;;;;;;8.43;4.93;;;39.40;35.30;;;;;;4957604;28;20030;-83
2023/09/01 10:20:42;;;;;;;9.70;5.10;;;39.90;34.60;;;;;;4957738;28;20023;-83
2023/09/01 10:23:09;;;;;;;8.25;5.03;;;38.00;35.30;;;;;;4956719;28;20031;-85
2023/09/01 10:25:35;;;;;;;12.13;5.35;;;;;;;;;;4957932;28;20027;-85
2023/09/01 10:28:14;;;;;;;31.90;11.43;;;;;;;;;;4959102;28;20102;-85
2023/09/01 10:30:45;;;;;;;51.45;14.55;;;;;;;;;;4950886;28;20027;-86
2023/09/01 10:33:13;;;;;;;41.17;10.32;;;36.20;36.80;;;;;;4957867;28;20027;-82
2023/09/01 10:35:46;;;;;;;38.63;8.23;;;32.00;43.70;;;;;;4963188;28;20023;-85
2023/09/01 10:38:32;;;;;;;31.25;7.40;;;31.50;43.40;;;;;;4964527;28;20371;-84
2023/09/01 10:40:58;;;;;;;22.88;6.80;;;31.10;43.60;;;;;;4956125;28;20027;-85
2023/09/01 10:43:38;;;;;;;53.00;10.40;;;30.80;44.70;;;;;;4957156;28;20051;-84
2023/09/01 10:46:16;;;;;;;17.90;5.82;;;30.60;45.40;;;;;;4947589;28;20019;-86
2023/09/01 10:48:49;;;;;;;51.55;13.88;;;;;;;;;;4956999;28;20050;-86
2023/09/01 10:51:18;;;;;;;24.20;8.18;;;;;;;;;;4956755;28;20019;-85
2023/09/01 10:53:45;;;;;;;13.98;5.78;;;;;;;;;;4958451;28;20050;-86
2023/09/01 10:56:15;;;;;;;13.98;5.97;;;;;;;;;;4957337;28;20078;-85
2023/09/01 10:58:41;;;;;;;20.75;8.20;;;;;;;;;;4954287;28;20026;-84
2023/09/01 11:01:27;;;;;;;12.40;5.67;;;;;;;;;;4981062;28;20027;-85
2023/09/01 11:03:53;;;;;;;11.55;6.28;;;;;;;;;;4965144;28;20023;-84
2023/09/01 11:06:20;;;;;;;37.23;9.33;;;;;;;;;;4971941;28;20023;-86
2023/09/01 11:09:03;;;;;;;10.38;5.65;;;;;;;;;;4970325;28;20027;-87
2023/09/01 11:11:29;;;;;;;12.70;6.80;;;;;;;;;;4948861;28;20016;-84
2023/09/01 11:13:59;;;;;;;50.03;11.27;;;;;;;;;;4959658;28;20028;-85
2023/09/01 11:16:25;;;;;;;57.22;15.13;;;;;;;;;;4968392;28;20045;-83
2023/09/01 11:19:02;;;;;;;91.38;16.92;;;;;;;;;;4962272;28;20023;-85
2023/09/01 11:21:29;;;;;;;27.63;10.27;;;;;;;;;;4956859;28;20062;-85
2023/09/01 11:24:03;;;;;;;25.10;8.88;;;;;;;;;;4950298;28;20023;-86
2023/09/01 11:26:29;;;;;;;17.30;7.00;;;;;;;;;;4952124;28;20377;-85
2023/09/01 11:28:55;;;;;;;30.83;9.05;;;;;;;;;;4970793;28;20023;-85
2023/09/01 11:31:22;;;;;;;36.20;9.37;;;;;;;;;;4959369;28;20034;-86
2023/09/01 11:33:52;;;;;;;11.93;5.38;;;;;;;;;;4962587;28;20027;-86
2023/09/01 11:36:18;;;;;;;18.63;7.10;;;;;;;;;;4977409;28;20023;-84
2023/09/01 11:38:45;;;;;;;12.68;6.38;;;;;;;;;;4959164;28;20038;-85
2023/09/01 11:41:12;;;;;;;19.85;8.02;;;;;;;;;;4939601;29;20090;-86
2023/09/01 11:43:39;;;;;;;46.97;12.00;;;;;;;;;;4958445;28;20417;-85
2023/09/01 11:46:06;;;;;;;25.13;8.90;;;;;;;;;;4953630;29;20027;-84
2023/09/01 11:48:33;;;;;;;15.50;7.35;;;;;;;;;;4951690;28;20054;-83
2023/09/01 11:50:59;;;;;;;8.25;5.47;;;;;;;;;;4927173;29;20104;-86
2023/09/01 11:53:25;;;;;;;21.87;9.13;;;;;;;;;;4956524;28;20039;-84
2023/09/01 11:55:57;;;;;;;31.45;13.30;;;;;;;;;;4940017;29;20289;-85
2023/09/01 11:58:23;;;;;;;12.65;5.97;;;;;;;;;;4954401;28;20123;-85
2023/09/01 12:00:49;;;;;;;13.35;6.22;;;;;;;;;;4942014;28;20027;-84
2023/09/01 12:03:21;;;;;;;75.97;13.40;;;;;;;;;;4955755;28;20032;-87
2023/09/01 12:05:47;;;;;;;60.10;13.77;;;;;;;;;;4955196;28;20023;-85
2023/09/01 12:08:13;;;;;;;24.58;8.07;;;;;;;;;;4955559;28;20030;-86
2023/09/01 12:10:40;;;;;;;20.80;9.35;;;;;;;;;;4968603;28;20105;-84
2023/09/01 12:13:17;;;;;;;116.37;26.30;;;;;;;;;;4974898;28;20105;-85
2023/09/01 12:16:09;;;;;;;51.58;14.77;;;;;;;;;;4978789;28;20039;-84
2023/09/01 12:18:39;;;;;;;52.13;11.68;;;;;;;;;;4946787;29;20039;-85
2023/09/01 12:21:06;;;;;;;101.55;18.88;;;;;;;;;;4968413;28;20026;-86
2023/09/01 12:23:32;;;;;;;;;;;;;;;;;;4957474;29;20054;-83
2023/09/01 12:25:59;;;;;;;81.88;14.95;;;;;;;;;;4959171;28;20387;-83
2023/09/01 12:28:26;;;;;;;27.13;9.35;;;;;;;;;;4955589;28;20481;-84
2023/09/01 12:30:53;;;;;;;27.75;7.97;;;;;;;;;;4955448;28;20421;-85
2023/09/01 12:33:19;;;;;;;55.78;13.25;;;;;;;;;;4938392;28;20023;-86
2023/09/01 12:35:46;;;;;;;12.80;5.30;;;;;;;;;;4955647;28;20043;-85
2023/09/01 12:38:12;;;;;;;23.80;9.18;;;;;;;;;;4940233;29;20033;-85
2023/09/01 12:40:37;;;;;;;12.50;7.00;;;30.50;45.10;;;;;;4971108;28;20102;-84
2023/09/01 12:43:03;;;;;;;11.00;5.85;;;27.90;51.80;;;;;;4954787;28;20198;-86
2023/09/01 12:45:30;;;;;;;12.18;6.13;;;27.70;51.70;;;;;;4954950;28;20024;-84
2023/09/01 12:47:56;;;;;;;13.10;7.00;;;27.90;51.70;;;;;;4955108;28;20051;-85
2023/09/01 12:50:22;;;;;;;28.80;8.70;;;28.20;51.60;;;;;;4956858;28;20376;-85
2023/09/01 12:52:48;;;;;;;11.70;6.57;;;28.50;50.90;;;;;;4965047;28;20015;-86